Terminal Aerodrome Forecast
Issued by NWS

Home | Current Version | Previous Version | Graphics & Text | Print | Product List | Glossary On
Versions: 1 2 3 4 5 6 7 8 9 10 11 12 13
000
FTUS45 KGGW 021720
TAFOLF
TAF
KOLF 021720Z 0218/0318 26006KT P6SM OVC020
     FM030000 VRB04KT P6SM SCT060
     FM031200 21004KT P6SM VCSH BKN050
     FM031500 22005KT 6SM BR VCSH OVC030=

USA.gov is the U.S. government's official web portal to all federal, state and local government web resources and services.